sensor_id;sensor_type;location;lat;lon;timestamp;P1;durP1;ratioP1;P2;durP2;ratioP2
41921;SDS011;27609;51.002;5.354;2023-02-13T00:00:56;55.10;;;23.80;;
41921;SDS011;27609;51.002;5.354;2023-02-13T00:03:22;53.30;;;22.98;;
41921;SDS011;27609;51.002;5.354;2023-02-13T00:05:48;58.13;;;23.02;;
41921;SDS011;27609;51.002;5.354;2023-02-13T00:08:13;50.35;;;21.08;;
41921;SDS011;27609;51.002;5.354;2023-02-13T00:10:39;49.50;;;21.48;;
41921;SDS011;27609;51.002;5.354;2023-02-13T00:13:05;44.28;;;20.60;;
41921;SDS011;27609;51.002;5.354;2023-02-13T00:15:30;48.63;;;19.15;;
41921;SDS011;27609;51.002;5.354;2023-02-13T00:17:56;46.08;;;20.10;;
41921;SDS011;27609;51.002;5.354;2023-02-13T00:20:22;42.38;;;18.67;;
41921;SDS011;27609;51.002;5.354;2023-02-13T00:22:48;42.30;;;19.60;;
41921;SDS011;27609;51.002;5.354;2023-02-13T00:25:13;40.20;;;20.38;;
41921;SDS011;27609;51.002;5.354;2023-02-13T00:27:39;57.67;;;20.20;;
41921;SDS011;27609;51.002;5.354;2023-02-13T00:30:05;53.78;;;22.13;;
41921;SDS011;27609;51.002;5.354;2023-02-13T00:32:31;50.45;;;21.08;;
41921;SDS011;27609;51.002;5.354;2023-02-13T00:34:57;47.00;;;20.40;;
41921;SDS011;27609;51.002;5.354;2023-02-13T00:37:23;46.53;;;19.73;;
41921;SDS011;27609;51.002;5.354;2023-02-13T00:39:49;50.92;;;20.60;;
41921;SDS011;27609;51.002;5.354;2023-02-13T00:42:15;53.80;;;22.25;;
41921;SDS011;27609;51.002;5.354;2023-02-13T00:44:41;47.78;;;19.85;;
41921;SDS011;27609;51.002;5.354;2023-02-13T00:47:06;43.65;;;19.48;;
41921;SDS011;27609;51.002;5.354;2023-02-13T00:49:32;44.65;;;18.25;;
41921;SDS011;27609;51.002;5.354;2023-02-13T00:51:58;41.58;;;17.17;;
41921;SDS011;27609;51.002;5.354;2023-02-13T00:54:23;39.20;;;17.02;;
41921;SDS011;27609;51.002;5.354;2023-02-13T00:56:49;38.25;;;17.23;;
41921;SDS011;27609;51.002;5.354;2023-02-13T00:59:15;99.65;;;19.75;;
41921;SDS011;27609;51.002;5.354;2023-02-13T01:01:41;77.07;;;21.33;;
41921;SDS011;27609;51.002;5.354;2023-02-13T01:04:07;38.85;;;17.63;;
41921;SDS011;27609;51.002;5.354;2023-02-13T01:06:33;37.05;;;16.67;;
41921;SDS011;27609;51.002;5.354;2023-02-13T01:08:58;39.45;;;16.77;;
41921;SDS011;27609;51.002;5.354;2023-02-13T01:11:24;42.55;;;18.85;;
41921;SDS011;27609;51.002;5.354;2023-02-13T01:13:50;41.20;;;18.83;;
41921;SDS011;27609;51.002;5.354;2023-02-13T01:16:15;37.72;;;17.90;;
41921;SDS011;27609;51.002;5.354;2023-02-13T01:18:42;43.67;;;19.75;;
41921;SDS011;27609;51.002;5.354;2023-02-13T01:21:11;43.53;;;18.65;;
41921;SDS011;27609;51.002;5.354;2023-02-13T01:23:43;40.05;;;17.92;;
41921;SDS011;27609;51.002;5.354;2023-02-13T01:26:17;46.33;;;20.90;;
41921;SDS011;27609;51.002;5.354;2023-02-13T01:28:45;41.15;;;18.23;;
41921;SDS011;27609;51.002;5.354;2023-02-13T01:31:11;43.15;;;19.33;;
41921;SDS011;27609;51.002;5.354;2023-02-13T01:33:37;38.92;;;17.85;;
41921;SDS011;27609;51.002;5.354;2023-02-13T01:36:10;36.97;;;17.92;;
41921;SDS011;27609;51.002;5.354;2023-02-13T01:38:38;51.03;;;18.90;;
41921;SDS011;27609;51.002;5.354;2023-02-13T01:41:06;77.40;;;20.83;;
41921;SDS011;27609;51.002;5.354;2023-02-13T01:43:42;64.22;;;20.42;;
41921;SDS011;27609;51.002;5.354;2023-02-13T01:46:15;39.25;;;18.25;;
41921;SDS011;27609;51.002;5.354;2023-02-13T01:48:46;37.22;;;17.42;;
41921;SDS011;27609;51.002;5.354;2023-02-13T01:51:16;43.97;;;18.90;;
41921;SDS011;27609;51.002;5.354;2023-02-13T01:53:57;57.17;;;18.27;;
41921;SDS011;27609;51.002;5.354;2023-02-13T01:56:50;40.75;;;18.77;;
41921;SDS011;27609;51.002;5.354;2023-02-13T01:59:24;38.95;;;15.95;;
41921;SDS011;27609;51.002;5.354;2023-02-13T02:01:54;44.88;;;18.52;;
41921;SDS011;27609;51.002;5.354;2023-02-13T02:04:24;76.15;;;21.38;;
41921;SDS011;27609;51.002;5.354;2023-02-13T02:06:55;88.60;;;25.23;;
41921;SDS011;27609;51.002;5.354;2023-02-13T02:09:28;81.05;;;23.45;;
41921;SDS011;27609;51.002;5.354;2023-02-13T02:14:28;61.15;;;23.30;;
41921;SDS011;27609;51.002;5.354;2023-02-13T02:16:54;58.40;;;22.88;;
41921;SDS011;27609;51.002;5.354;2023-02-13T02:25:09;103.05;;;26.45;;
41921;SDS011;27609;51.002;5.354;2023-02-13T02:30:51;246.48;;;35.65;;
41921;SDS011;27609;51.002;5.354;2023-02-13T02:33:28;66.78;;;26.27;;
41921;SDS011;27609;51.002;5.354;2023-02-13T02:36:06;78.47;;;27.27;;
41921;SDS011;27609;51.002;5.354;2023-02-13T02:45:08;331.60;;;36.17;;
41921;SDS011;27609;51.002;5.354;2023-02-13T02:53:21;89.75;;;28.55;;
41921;SDS011;27609;51.002;5.354;2023-02-13T03:01:31;87.63;;;26.60;;
41921;SDS011;27609;51.002;5.354;2023-02-13T03:07:07;158.85;;;31.15;;
41921;SDS011;27609;51.002;5.354;2023-02-13T03:09:39;168.13;;;28.50;;
41921;SDS011;27609;51.002;5.354;2023-02-13T03:15:14;166.90;;;29.50;;
41921;SDS011;27609;51.002;5.354;2023-02-13T03:17:40;141.20;;;24.40;;
41921;SDS011;27609;51.002;5.354;2023-02-13T03:23:22;286.60;;;30.42;;
41921;SDS011;27609;51.002;5.354;2023-02-13T03:28:35;175.70;;;25.60;;
41921;SDS011;27609;51.002;5.354;2023-02-13T03:34:06;98.55;;;24.90;;
41921;SDS011;27609;51.002;5.354;2023-02-13T03:36:58;262.85;;;34.70;;
41921;SDS011;27609;51.002;5.354;2023-02-13T03:42:26;125.55;;;26.05;;
41921;SDS011;27609;51.002;5.354;2023-02-13T03:47:52;75.50;;;24.17;;
41921;SDS011;27609;51.002;5.354;2023-02-13T03:50:21;91.05;;;21.98;;
41921;SDS011;27609;51.002;5.354;2023-02-13T03:52:54;82.63;;;23.55;;
41921;SDS011;27609;51.002;5.354;2023-02-13T03:55:32;96.07;;;21.55;;
41921;SDS011;27609;51.002;5.354;2023-02-13T03:58:24;98.80;;;20.85;;
41921;SDS011;27609;51.002;5.354;2023-02-13T04:01:12;96.22;;;22.45;;
41921;SDS011;27609;51.002;5.354;2023-02-13T04:03:43;147.18;;;22.88;;
41921;SDS011;27609;51.002;5.354;2023-02-13T04:06:18;127.53;;;23.17;;
41921;SDS011;27609;51.002;5.354;2023-02-13T04:08:50;171.68;;;24.60;;
41921;SDS011;27609;51.002;5.354;2023-02-13T04:14:14;224.52;;;24.13;;
41921;SDS011;27609;51.002;5.354;2023-02-13T04:16:52;118.40;;;21.20;;
41921;SDS011;27609;51.002;5.354;2023-02-13T04:19:30;157.75;;;23.38;;
41921;SDS011;27609;51.002;5.354;2023-02-13T04:21:58;170.93;;;23.95;;
41921;SDS011;27609;51.002;5.354;2023-02-13T04:24:26;188.10;;;24.65;;
41921;SDS011;27609;51.002;5.354;2023-02-13T04:26:52;118.15;;;19.88;;
41921;SDS011;27609;51.002;5.354;2023-02-13T04:29:23;100.50;;;20.92;;
41921;SDS011;27609;51.002;5.354;2023-02-13T04:31:49;60.70;;;21.75;;
41921;SDS011;27609;51.002;5.354;2023-02-13T04:34:16;81.72;;;20.77;;
41921;SDS011;27609;51.002;5.354;2023-02-13T04:36:41;110.93;;;22.48;;
41921;SDS011;27609;51.002;5.354;2023-02-13T04:39:08;84.50;;;21.98;;
41921;SDS011;27609;51.002;5.354;2023-02-13T04:41:34;271.98;;;26.58;;
41921;SDS011;27609;51.002;5.354;2023-02-13T04:44:00;84.97;;;20.63;;
41921;SDS011;27609;51.002;5.354;2023-02-13T04:46:26;188.68;;;23.75;;
41921;SDS011;27609;51.002;5.354;2023-02-13T04:48:51;145.23;;;22.00;;
41921;SDS011;27609;51.002;5.354;2023-02-13T04:51:17;107.00;;;23.48;;
41921;SDS011;27609;51.002;5.354;2023-02-13T04:53:43;64.43;;;23.83;;
41921;SDS011;27609;51.002;5.354;2023-02-13T04:56:09;181.27;;;24.92;;
41921;SDS011;27609;51.002;5.354;2023-02-13T04:58:34;168.55;;;25.05;;
41921;SDS011;27609;51.002;5.354;2023-02-13T05:01:00;233.52;;;26.35;;
41921;SDS011;27609;51.002;5.354;2023-02-13T05:03:26;143.35;;;27.73;;
41921;SDS011;27609;51.002;5.354;2023-02-13T05:05:51;95.03;;;22.52;;
41921;SDS011;27609;51.002;5.354;2023-02-13T05:08:17;93.15;;;23.13;;
41921;SDS011;27609;51.002;5.354;2023-02-13T05:10:43;115.30;;;23.95;;
41921;SDS011;27609;51.002;5.354;2023-02-13T05:13:09;79.95;;;21.60;;
41921;SDS011;27609;51.002;5.354;2023-02-13T05:15:34;182.98;;;24.60;;
41921;SDS011;27609;51.002;5.354;2023-02-13T05:18:00;73.60;;;22.38;;
41921;SDS011;27609;51.002;5.354;2023-02-13T05:20:26;150.23;;;25.50;;
41921;SDS011;27609;51.002;5.354;2023-02-13T05:22:52;73.95;;;21.50;;
41921;SDS011;27609;51.002;5.354;2023-02-13T05:25:37;59.28;;;21.48;;
41921;SDS011;27609;51.002;5.354;2023-02-13T05:28:04;62.60;;;20.13;;
41921;SDS011;27609;51.002;5.354;2023-02-13T05:30:51;58.38;;;20.48;;
41921;SDS011;27609;51.002;5.354;2023-02-13T05:33:17;107.30;;;23.77;;
41921;SDS011;27609;51.002;5.354;2023-02-13T05:35:42;77.18;;;21.73;;
41921;SDS011;27609;51.002;5.354;2023-02-13T05:38:08;67.82;;;20.23;;
41921;SDS011;27609;51.002;5.354;2023-02-13T05:40:34;66.07;;;21.88;;
41921;SDS011;27609;51.002;5.354;2023-02-13T05:43:00;48.22;;;20.58;;
41921;SDS011;27609;51.002;5.354;2023-02-13T05:45:26;58.20;;;21.27;;
41921;SDS011;27609;51.002;5.354;2023-02-13T05:47:51;57.33;;;22.77;;
41921;SDS011;27609;51.002;5.354;2023-02-13T05:50:17;58.50;;;22.33;;
41921;SDS011;27609;51.002;5.354;2023-02-13T05:52:43;58.58;;;22.90;;
41921;SDS011;27609;51.002;5.354;2023-02-13T05:55:09;55.83;;;25.08;;
41921;SDS011;27609;51.002;5.354;2023-02-13T05:57:34;125.25;;;29.27;;
41921;SDS011;27609;51.002;5.354;2023-02-13T06:00:00;98.82;;;30.23;;
41921;SDS011;27609;51.002;5.354;2023-02-13T06:02:26;71.70;;;27.30;;
41921;SDS011;27609;51.002;5.354;2023-02-13T06:04:52;56.95;;;22.73;;
41921;SDS011;27609;51.002;5.354;2023-02-13T06:07:17;44.45;;;21.05;;
41921;SDS011;27609;51.002;5.354;2023-02-13T06:09:43;46.20;;;21.88;;
41921;SDS011;27609;51.002;5.354;2023-02-13T06:12:09;44.90;;;20.20;;
41921;SDS011;27609;51.002;5.354;2023-02-13T06:14:34;46.45;;;21.13;;
41921;SDS011;27609;51.002;5.354;2023-02-13T06:17:00;49.42;;;21.25;;
41921;SDS011;27609;51.002;5.354;2023-02-13T06:19:26;51.47;;;21.38;;
41921;SDS011;27609;51.002;5.354;2023-02-13T06:21:52;47.53;;;20.33;;
41921;SDS011;27609;51.002;5.354;2023-02-13T06:24:17;48.42;;;22.45;;
41921;SDS011;27609;51.002;5.354;2023-02-13T06:26:43;57.67;;;23.42;;
41921;SDS011;27609;51.002;5.354;2023-02-13T06:29:09;47.75;;;21.77;;
41921;SDS011;27609;51.002;5.354;2023-02-13T06:31:35;58.15;;;23.35;;
41921;SDS011;27609;51.002;5.354;2023-02-13T06:34:01;53.30;;;21.83;;
41921;SDS011;27609;51.002;5.354;2023-02-13T06:36:27;53.05;;;22.27;;
41921;SDS011;27609;51.002;5.354;2023-02-13T06:38:52;53.85;;;22.35;;
41921;SDS011;27609;51.002;5.354;2023-02-13T06:41:18;59.08;;;23.52;;
41921;SDS011;27609;51.002;5.354;2023-02-13T06:43:44;98.15;;;26.33;;
41921;SDS011;27609;51.002;5.354;2023-02-13T06:46:10;75.28;;;26.75;;
41921;SDS011;27609;51.002;5.354;2023-02-13T06:48:35;69.63;;;28.30;;
41921;SDS011;27609;51.002;5.354;2023-02-13T06:51:01;62.55;;;26.80;;
41921;SDS011;27609;51.002;5.354;2023-02-13T06:53:27;60.25;;;28.73;;
41921;SDS011;27609;51.002;5.354;2023-02-13T06:55:54;62.65;;;26.50;;
41921;SDS011;27609;51.002;5.354;2023-02-13T06:58:20;75.40;;;28.05;;
41921;SDS011;27609;51.002;5.354;2023-02-13T07:00:48;86.03;;;32.53;;
41921;SDS011;27609;51.002;5.354;2023-02-13T07:03:14;84.82;;;32.55;;
41921;SDS011;27609;51.002;5.354;2023-02-13T07:05:40;61.30;;;27.88;;
41921;SDS011;27609;51.002;5.354;2023-02-13T07:08:06;66.60;;;24.33;;
41921;SDS011;27609;51.002;5.354;2023-02-13T07:10:35;58.50;;;24.33;;
41921;SDS011;27609;51.002;5.354;2023-02-13T07:13:02;55.50;;;23.02;;
41921;SDS011;27609;51.002;5.354;2023-02-13T07:15:28;53.28;;;23.85;;
41921;SDS011;27609;51.002;5.354;2023-02-13T07:17:57;59.53;;;27.52;;
41921;SDS011;27609;51.002;5.354;2023-02-13T07:20:23;67.45;;;27.52;;
41921;SDS011;27609;51.002;5.354;2023-02-13T07:22:50;68.30;;;28.23;;
41921;SDS011;27609;51.002;5.354;2023-02-13T07:25:16;63.33;;;26.45;;
41921;SDS011;27609;51.002;5.354;2023-02-13T07:27:43;61.90;;;26.40;;
41921;SDS011;27609;51.002;5.354;2023-02-13T07:30:09;61.47;;;25.45;;
41921;SDS011;27609;51.002;5.354;2023-02-13T07:32:36;59.90;;;25.58;;
41921;SDS011;27609;51.002;5.354;2023-02-13T07:35:02;64.00;;;26.65;;
41921;SDS011;27609;51.002;5.354;2023-02-13T07:37:30;57.10;;;25.85;;
41921;SDS011;27609;51.002;5.354;2023-02-13T07:39:59;58.30;;;26.23;;
41921;SDS011;27609;51.002;5.354;2023-02-13T07:42:25;60.30;;;26.23;;
41921;SDS011;27609;51.002;5.354;2023-02-13T07:44:50;67.45;;;26.33;;
41921;SDS011;27609;51.002;5.354;2023-02-13T07:47:16;61.47;;;26.77;;
41921;SDS011;27609;51.002;5.354;2023-02-13T07:49:42;63.88;;;27.02;;
41921;SDS011;27609;51.002;5.354;2023-02-13T07:52:08;53.50;;;25.45;;
41921;SDS011;27609;51.002;5.354;2023-02-13T07:54:35;55.22;;;26.52;;
41921;SDS011;27609;51.002;5.354;2023-02-13T07:57:02;49.47;;;26.92;;
41921;SDS011;27609;51.002;5.354;2023-02-13T07:59:28;56.03;;;26.85;;
41921;SDS011;27609;51.002;5.354;2023-02-13T08:01:54;51.28;;;27.45;;
41921;SDS011;27609;51.002;5.354;2023-02-13T08:04:19;46.40;;;26.15;;
41921;SDS011;27609;51.002;5.354;2023-02-13T08:06:45;46.50;;;25.90;;
41921;SDS011;27609;51.002;5.354;2023-02-13T08:09:16;48.05;;;26.85;;
41921;SDS011;27609;51.002;5.354;2023-02-13T08:12:03;44.75;;;26.25;;
41921;SDS011;27609;51.002;5.354;2023-02-13T08:14:30;46.47;;;25.50;;
41921;SDS011;27609;51.002;5.354;2023-02-13T08:16:56;43.22;;;25.40;;
41921;SDS011;27609;51.002;5.354;2023-02-13T08:19:23;42.58;;;26.27;;
41921;SDS011;27609;51.002;5.354;2023-02-13T08:21:48;40.38;;;24.98;;
41921;SDS011;27609;51.002;5.354;2023-02-13T08:24:14;47.22;;;26.17;;
41921;SDS011;27609;51.002;5.354;2023-02-13T08:26:40;43.65;;;27.27;;
41921;SDS011;27609;51.002;5.354;2023-02-13T08:29:06;43.00;;;26.52;;
41921;SDS011;27609;51.002;5.354;2023-02-13T08:31:32;41.28;;;27.35;;
41921;SDS011;27609;51.002;5.354;2023-02-13T08:33:57;44.47;;;26.65;;
41921;SDS011;27609;51.002;5.354;2023-02-13T08:36:23;41.85;;;25.92;;
41921;SDS011;27609;51.002;5.354;2023-02-13T08:38:49;38.95;;;26.38;;
41921;SDS011;27609;51.002;5.354;2023-02-13T08:41:16;41.45;;;26.15;;
41921;SDS011;27609;51.002;5.354;2023-02-13T08:43:43;39.08;;;27.50;;
41921;SDS011;27609;51.002;5.354;2023-02-13T08:46:09;38.50;;;26.80;;
41921;SDS011;27609;51.002;5.354;2023-02-13T08:48:35;39.05;;;26.50;;
41921;SDS011;27609;51.002;5.354;2023-02-13T08:51:08;37.60;;;25.17;;
41921;SDS011;27609;51.002;5.354;2023-02-13T08:53:34;29.98;;;22.75;;
41921;SDS011;27609;51.002;5.354;2023-02-13T08:56:01;30.77;;;21.42;;
41921;SDS011;27609;51.002;5.354;2023-02-13T08:58:26;30.95;;;20.17;;
41921;SDS011;27609;51.002;5.354;2023-02-13T09:00:52;29.45;;;21.17;;
41921;SDS011;27609;51.002;5.354;2023-02-13T09:03:18;25.80;;;19.70;;
41921;SDS011;27609;51.002;5.354;2023-02-13T09:05:44;27.90;;;20.92;;
41921;SDS011;27609;51.002;5.354;2023-02-13T09:08:09;29.27;;;21.48;;
41921;SDS011;27609;51.002;5.354;2023-02-13T09:10:38;28.17;;;20.23;;
41921;SDS011;27609;51.002;5.354;2023-02-13T09:13:05;29.98;;;20.92;;
41921;SDS011;27609;51.002;5.354;2023-02-13T09:15:31;29.10;;;19.80;;
41921;SDS011;27609;51.002;5.354;2023-02-13T09:17:57;28.60;;;19.75;;
41921;SDS011;27609;51.002;5.354;2023-02-13T09:20:23;29.60;;;20.48;;
41921;SDS011;27609;51.002;5.354;2023-02-13T09:22:49;29.02;;;18.73;;
41921;SDS011;27609;51.002;5.354;2023-02-13T09:25:15;29.33;;;18.98;;
41921;SDS011;27609;51.002;5.354;2023-02-13T09:27:41;29.38;;;18.60;;
41921;SDS011;27609;51.002;5.354;2023-02-13T09:30:07;25.33;;;16.67;;
41921;SDS011;27609;51.002;5.354;2023-02-13T09:32:34;23.67;;;15.27;;
41921;SDS011;27609;51.002;5.354;2023-02-13T09:35:02;25.63;;;16.33;;
41921;SDS011;27609;51.002;5.354;2023-02-13T09:37:28;20.30;;;16.30;;
41921;SDS011;27609;51.002;5.354;2023-02-13T09:39:54;23.50;;;16.88;;
41921;SDS011;27609;51.002;5.354;2023-02-13T09:42:21;22.90;;;16.35;;
41921;SDS011;27609;51.002;5.354;2023-02-13T09:44:54;24.05;;;16.55;;
41921;SDS011;27609;51.002;5.354;2023-02-13T09:49:53;25.73;;;16.58;;
41921;SDS011;27609;51.002;5.354;2023-02-13T09:52:22;19.00;;;15.20;;
41921;SDS011;27609;51.002;5.354;2023-02-13T09:54:51;20.67;;;16.27;;
41921;SDS011;27609;51.002;5.354;2023-02-13T09:57:33;21.80;;;15.73;;
41921;SDS011;27609;51.002;5.354;2023-02-13T10:03:15;20.58;;;15.65;;
41921;SDS011;27609;51.002;5.354;2023-02-13T10:11:29;16.20;;;13.60;;
41921;SDS011;27609;51.002;5.354;2023-02-13T10:17:01;15.93;;;13.00;;
41921;SDS011;27609;51.002;5.354;2023-02-13T10:19:34;21.30;;;15.63;;
41921;SDS011;27609;51.002;5.354;2023-02-13T10:24:47;14.60;;;12.27;;
41921;SDS011;27609;51.002;5.354;2023-02-13T10:27:42;18.55;;;13.43;;
41921;SDS011;27609;51.002;5.354;2023-02-13T10:30:22;15.60;;;12.30;;
41921;SDS011;27609;51.002;5.354;2023-02-13T10:32:54;15.85;;;12.35;;
41921;SDS011;27609;51.002;5.354;2023-02-13T10:38:33;17.15;;;11.52;;
41921;SDS011;27609;51.002;5.354;2023-02-13T10:51:47;15.15;;;11.15;;
41921;SDS011;27609;51.002;5.354;2023-02-13T10:54:29;16.02;;;10.95;;
41921;SDS011;27609;51.002;5.354;2023-02-13T10:57:21;14.60;;;10.48;;
41921;SDS011;27609;51.002;5.354;2023-02-13T11:00:12;15.35;;;11.10;;
41921;SDS011;27609;51.002;5.354;2023-02-13T11:02:43;19.75;;;11.98;;
41921;SDS011;27609;51.002;5.354;2023-02-13T11:05:17;14.88;;;11.48;;
41921;SDS011;27609;51.002;5.354;2023-02-13T11:07:46;14.00;;;10.77;;
41921;SDS011;27609;51.002;5.354;2023-02-13T11:10:17;14.27;;;11.05;;
41921;SDS011;27609;51.002;5.354;2023-02-13T11:12:45;15.73;;;11.05;;
41921;SDS011;27609;51.002;5.354;2023-02-13T11:17:56;19.42;;;12.60;;
41921;SDS011;27609;51.002;5.354;2023-02-13T11:20:41;20.05;;;12.98;;
41921;SDS011;27609;51.002;5.354;2023-02-13T11:28:29;15.75;;;11.73;;
41921;SDS011;27609;51.002;5.354;2023-02-13T11:31:11;12.95;;;10.88;;
41921;SDS011;27609;51.002;5.354;2023-02-13T11:33:38;19.83;;;11.88;;
41921;SDS011;27609;51.002;5.354;2023-02-13T11:36:06;13.18;;;11.10;;
41921;SDS011;27609;51.002;5.354;2023-02-13T11:38:37;14.85;;;11.57;;
41921;SDS011;27609;51.002;5.354;2023-02-13T11:43:29;12.00;;;9.65;;
41921;SDS011;27609;51.002;5.354;2023-02-13T11:46:21;14.80;;;10.48;;
41921;SDS011;27609;51.002;5.354;2023-02-13T11:49:35;13.98;;;10.70;;
41921;SDS011;27609;51.002;5.354;2023-02-13T11:51:45;13.35;;;11.23;;
41921;SDS011;27609;51.002;5.354;2023-02-13T11:54:21;21.20;;;12.55;;
41921;SDS011;27609;51.002;5.354;2023-02-13T11:57:13;15.90;;;12.02;;
41921;SDS011;27609;51.002;5.354;2023-02-13T12:00:08;17.17;;;10.45;;
41921;SDS011;27609;51.002;5.354;2023-02-13T12:03:37;15.73;;;10.00;;
41921;SDS011;27609;51.002;5.354;2023-02-13T12:06:10;12.25;;;9.57;;
41921;SDS011;27609;51.002;5.354;2023-02-13T12:08:38;10.90;;;9.00;;
41921;SDS011;27609;51.002;5.354;2023-02-13T12:11:11;10.85;;;8.27;;
41921;SDS011;27609;51.002;5.354;2023-02-13T12:13:50;8.02;;;6.68;;
41921;SDS011;27609;51.002;5.354;2023-02-13T12:16:24;7.68;;;5.95;;
41921;SDS011;27609;51.002;5.354;2023-02-13T12:19:03;11.27;;;8.52;;
41921;SDS011;27609;51.002;5.354;2023-02-13T12:27:22;16.80;;;8.15;;
41921;SDS011;27609;51.002;5.354;2023-02-13T12:38:19;11.10;;;7.38;;
41921;SDS011;27609;51.002;5.354;2023-02-13T12:44:01;8.63;;;6.63;;
41921;SDS011;27609;51.002;5.354;2023-02-13T13:08:49;12.80;;;6.57;;
41921;SDS011;27609;51.002;5.354;2023-02-13T13:14:37;7.63;;;6.50;;
41921;SDS011;27609;51.002;5.354;2023-02-13T13:22:58;6.75;;;5.65;;
41921;SDS011;27609;51.002;5.354;2023-02-13T13:25:59;6.20;;;5.38;;
41921;SDS011;27609;51.002;5.354;2023-02-13T13:28:22;5.57;;;4.97;;
41921;SDS011;27609;51.002;5.354;2023-02-13T13:30:52;8.70;;;5.15;;
41921;SDS011;27609;51.002;5.354;2023-02-13T13:33:23;7.35;;;5.20;;
41921;SDS011;27609;51.002;5.354;2023-02-13T13:44:13;5.68;;;5.05;;
41921;SDS011;27609;51.002;5.354;2023-02-13T13:47:10;4.65;;;4.15;;
41921;SDS011;27609;51.002;5.354;2023-02-13T13:49:59;8.38;;;5.32;;
41921;SDS011;27609;51.002;5.354;2023-02-13T13:52:27;7.03;;;4.93;;
41921;SDS011;27609;51.002;5.354;2023-02-13T13:54:57;5.78;;;4.43;;
41921;SDS011;27609;51.002;5.354;2023-02-13T14:05:16;5.07;;;4.57;;
41921;SDS011;27609;51.002;5.354;2023-02-13T14:07:43;7.05;;;4.65;;
41921;SDS011;27609;51.002;5.354;2023-02-13T14:13:00;7.55;;;4.78;;
41921;SDS011;27609;51.002;5.354;2023-02-13T14:23:21;6.63;;;4.50;;
41921;SDS011;27609;51.002;5.354;2023-02-13T14:26:18;6.03;;;4.35;;
41921;SDS011;27609;51.002;5.354;2023-02-13T14:31:52;6.85;;;4.82;;
41921;SDS011;27609;51.002;5.354;2023-02-13T14:34:19;7.72;;;4.95;;
41921;SDS011;27609;51.002;5.354;2023-02-13T14:37:04;7.53;;;5.25;;
41921;SDS011;27609;51.002;5.354;2023-02-13T14:40:11;11.33;;;5.20;;
41921;SDS011;27609;51.002;5.354;2023-02-13T14:42:42;13.45;;;5.78;;
41921;SDS011;27609;51.002;5.354;2023-02-13T14:45:15;14.77;;;5.32;;
41921;SDS011;27609;51.002;5.354;2023-02-13T14:47:47;10.48;;;5.82;;
41921;SDS011;27609;51.002;5.354;2023-02-13T14:50:27;11.38;;;5.93;;
41921;SDS011;27609;51.002;5.354;2023-02-13T14:53:24;11.45;;;5.60;;
41921;SDS011;27609;51.002;5.354;2023-02-13T14:55:54;11.00;;;6.13;;
41921;SDS011;27609;51.002;5.354;2023-02-13T14:58:34;13.05;;;5.63;;
41921;SDS011;27609;51.002;5.354;2023-02-13T15:01:50;9.30;;;5.40;;
41921;SDS011;27609;51.002;5.354;2023-02-13T15:04:06;14.27;;;5.70;;
41921;SDS011;27609;51.002;5.354;2023-02-13T15:06:40;8.63;;;5.78;;
41921;SDS011;27609;51.002;5.354;2023-02-13T15:09:18;12.13;;;6.10;;
41921;SDS011;27609;51.002;5.354;2023-02-13T15:11:47;8.90;;;5.35;;
41921;SDS011;27609;51.002;5.354;2023-02-13T15:14:18;10.63;;;5.88;;
41921;SDS011;27609;51.002;5.354;2023-02-13T15:17:01;8.77;;;5.07;;
41921;SDS011;27609;51.002;5.354;2023-02-13T15:19:30;10.85;;;4.80;;
41921;SDS011;27609;51.002;5.354;2023-02-13T15:21:59;8.38;;;5.40;;
41921;SDS011;27609;51.002;5.354;2023-02-13T15:24:26;11.85;;;6.20;;
41921;SDS011;27609;51.002;5.354;2023-02-13T15:27:01;6.70;;;4.90;;
41921;SDS011;27609;51.002;5.354;2023-02-13T15:29:29;8.52;;;5.32;;
41921;SDS011;27609;51.002;5.354;2023-02-13T15:31:56;10.77;;;5.57;;
41921;SDS011;27609;51.002;5.354;2023-02-13T15:36:48;7.47;;;5.28;;
41921;SDS011;27609;51.002;5.354;2023-02-13T15:39:18;9.77;;;4.90;;
41921;SDS011;27609;51.002;5.354;2023-02-13T15:41:48;8.05;;;5.43;;
41921;SDS011;27609;51.002;5.354;2023-02-13T15:44:36;7.55;;;5.15;;
41921;SDS011;27609;51.002;5.354;2023-02-13T15:47:04;12.77;;;5.50;;
41921;SDS011;27609;51.002;5.354;2023-02-13T15:49:44;10.00;;;5.57;;
41921;SDS011;27609;51.002;5.354;2023-02-13T15:52:19;6.90;;;4.78;;
41921;SDS011;27609;51.002;5.354;2023-02-13T15:55:00;6.85;;;4.45;;
41921;SDS011;27609;51.002;5.354;2023-02-13T15:57:26;95.07;;;53.10;;
41921;SDS011;27609;51.002;5.354;2023-02-13T15:59:53;16.73;;;9.00;;
41921;SDS011;27609;51.002;5.354;2023-02-13T16:02:22;10.85;;;6.25;;
41921;SDS011;27609;51.002;5.354;2023-02-13T16:05:04;11.02;;;7.00;;
41921;SDS011;27609;51.002;5.354;2023-02-13T16:07:44;23.40;;;8.57;;
41921;SDS011;27609;51.002;5.354;2023-02-13T16:10:13;14.48;;;6.65;;
41921;SDS011;27609;51.002;5.354;2023-02-13T16:12:45;9.95;;;6.57;;
41921;SDS011;27609;51.002;5.354;2023-02-13T16:15:14;10.60;;;6.20;;
41921;SDS011;27609;51.002;5.354;2023-02-13T16:17:42;15.32;;;6.90;;
41921;SDS011;27609;51.002;5.354;2023-02-13T16:22:39;11.43;;;6.53;;
41921;SDS011;27609;51.002;5.354;2023-02-13T16:27:45;7.90;;;5.30;;
41921;SDS011;27609;51.002;5.354;2023-02-13T16:38:40;10.77;;;5.30;;
41921;SDS011;27609;51.002;5.354;2023-02-13T16:41:27;10.10;;;5.25;;
41921;SDS011;27609;51.002;5.354;2023-02-13T16:44:00;11.75;;;4.95;;
41921;SDS011;27609;51.002;5.354;2023-02-13T16:46:34;8.40;;;5.03;;
41921;SDS011;27609;51.002;5.354;2023-02-13T16:59:22;12.23;;;6.30;;
41921;SDS011;27609;51.002;5.354;2023-02-13T17:02:01;13.18;;;7.32;;
41921;SDS011;27609;51.002;5.354;2023-02-13T17:05:12;11.52;;;7.03;;
41921;SDS011;27609;51.002;5.354;2023-02-13T17:07:45;15.15;;;7.22;;
41921;SDS011;27609;51.002;5.354;2023-02-13T17:12:56;14.00;;;7.53;;
41921;SDS011;27609;51.002;5.354;2023-02-13T17:15:24;14.65;;;7.18;;
41921;SDS011;27609;51.002;5.354;2023-02-13T17:17:52;13.23;;;7.07;;
41921;SDS011;27609;51.002;5.354;2023-02-13T17:20:22;15.63;;;8.48;;
41921;SDS011;27609;51.002;5.354;2023-02-13T17:22:51;15.05;;;8.73;;
41921;SDS011;27609;51.002;5.354;2023-02-13T17:25:19;23.00;;;10.35;;
41921;SDS011;27609;51.002;5.354;2023-02-13T17:27:47;11.32;;;7.38;;
41921;SDS011;27609;51.002;5.354;2023-02-13T17:30:15;15.30;;;9.30;;
41921;SDS011;27609;51.002;5.354;2023-02-13T17:32:43;14.00;;;9.10;;
41921;SDS011;27609;51.002;5.354;2023-02-13T17:35:10;17.77;;;10.50;;
41921;SDS011;27609;51.002;5.354;2023-02-13T17:37:37;20.08;;;10.90;;
41921;SDS011;27609;51.002;5.354;2023-02-13T17:40:05;20.30;;;11.45;;
41921;SDS011;27609;51.002;5.354;2023-02-13T17:42:32;26.67;;;11.10;;
41921;SDS011;27609;51.002;5.354;2023-02-13T17:44:58;20.13;;;12.10;;
41921;SDS011;27609;51.002;5.354;2023-02-13T17:47:24;26.63;;;12.45;;
41921;SDS011;27609;51.002;5.354;2023-02-13T17:49:50;27.63;;;13.95;;
41921;SDS011;27609;51.002;5.354;2023-02-13T17:52:17;26.90;;;12.40;;
41921;SDS011;27609;51.002;5.354;2023-02-13T17:54:45;20.95;;;12.20;;
41921;SDS011;27609;51.002;5.354;2023-02-13T17:57:12;19.67;;;11.73;;
41921;SDS011;27609;51.002;5.354;2023-02-13T17:59:39;31.75;;;15.43;;
41921;SDS011;27609;51.002;5.354;2023-02-13T18:02:08;32.65;;;16.23;;
41921;SDS011;27609;51.002;5.354;2023-02-13T18:04:39;37.05;;;16.48;;
41921;SDS011;27609;51.002;5.354;2023-02-13T18:07:05;35.50;;;14.35;;